createdAt,value
2018-12-05T00:00:10.371Z,1.75
2018-12-05T00:02:37.785Z,3.07
2018-12-05T00:05:05.446Z,1.90
2018-12-05T00:07:32.865Z,2.10
2018-12-05T00:10:00.276Z,2.50
2018-12-05T00:12:27.687Z,4.10
2018-12-05T00:14:55.079Z,1.47
2018-12-05T00:17:22.489Z,1.67
2018-12-05T00:19:49.901Z,7.20
2018-12-05T00:22:17.310Z,1.85
2018-12-05T00:24:44.732Z,2.77
2018-12-05T00:27:12.242Z,2.17
2018-12-05T00:29:39.659Z,6.22
2018-12-05T00:32:07.099Z,5.53
2018-12-05T00:34:34.517Z,1.87
2018-12-05T00:37:01.932Z,9.70
2018-12-05T00:39:29.345Z,4.37
2018-12-05T00:41:56.862Z,3.33
2018-12-05T00:44:24.302Z,4.40
2018-12-05T00:46:51.728Z,4.15
2018-12-05T00:49:19.140Z,2.73
2018-12-05T00:51:46.570Z,1.90
2018-12-05T00:54:14.001Z,4.23
2018-12-05T00:56:41.413Z,1.83
2018-12-05T00:59:08.850Z,2.57
2018-12-05T01:01:36.272Z,2.05
2018-12-05T01:04:04.024Z,3.20
2018-12-05T01:06:31.552Z,2.83
2018-12-05T01:08:58.985Z,2.03
2018-12-05T01:11:26.385Z,6.27
2018-12-05T01:13:53.798Z,6.83
2018-12-05T01:16:21.226Z,4.37
2018-12-05T01:18:48.641Z,4.00
2018-12-05T01:21:16.069Z,11.40
2018-12-05T01:23:43.481Z,4.30
2018-12-05T01:26:10.885Z,5.50
2018-12-05T01:28:38.317Z,4.70
2018-12-05T01:31:05.731Z,4.53
2018-12-05T01:33:33.134Z,6.10
2018-12-05T01:36:00.537Z,8.23
2018-12-05T01:38:27.954Z,9.23
2018-12-05T01:40:55.356Z,10.73
2018-12-05T01:43:24.710Z,8.35
2018-12-05T01:45:52.450Z,7.60
2018-12-05T01:48:20.254Z,12.78
2018-12-05T01:50:47.821Z,9.18
2018-12-05T01:53:15.253Z,12.00
2018-12-05T01:55:42.669Z,16.67
2018-12-05T01:58:10.086Z,14.10
2018-12-05T02:00:37.822Z,9.48
2018-12-05T02:03:05.249Z,12.98
2018-12-05T02:05:32.646Z,8.17
2018-12-05T02:08:00.102Z,10.23
2018-12-05T02:10:27.510Z,9.93
2018-12-05T02:12:54.918Z,13.00
2018-12-05T02:15:22.350Z,11.12
2018-12-05T02:17:49.767Z,16.83
2018-12-05T02:20:17.192Z,8.50
2018-12-05T02:22:44.619Z,14.80
2018-12-05T02:25:12.041Z,13.93
2018-12-05T02:27:39.442Z,10.20
2018-12-05T02:30:06.893Z,18.20
2018-12-05T02:32:34.396Z,14.13
2018-12-05T02:35:01.898Z,16.40
2018-12-05T02:37:29.305Z,16.37
2018-12-05T02:39:56.730Z,18.40
2018-12-05T02:42:24.161Z,16.47
2018-12-05T02:44:51.581Z,15.43
2018-12-05T02:47:19.007Z,14.33
2018-12-05T02:49:46.414Z,20.70
2018-12-05T02:52:13.831Z,18.83
2018-12-05T02:54:41.242Z,17.20
2018-12-05T02:57:08.653Z,15.98
2018-12-05T02:59:36.071Z,17.90
2018-12-05T03:02:03.515Z,15.70
2018-12-05T03:04:30.947Z,11.20
2018-12-05T03:06:58.380Z,11.63
2018-12-05T03:09:25.802Z,17.20
2018-12-05T03:11:53.235Z,10.20
2018-12-05T03:14:20.734Z,13.43
2018-12-05T03:16:48.140Z,11.97
2018-12-05T03:19:15.546Z,17.40
2018-12-05T03:21:42.998Z,12.80
2018-12-05T03:24:10.493Z,14.50
2018-12-05T03:26:37.927Z,16.40
2018-12-05T03:29:06.795Z,12.47
2018-12-05T03:31:34.487Z,13.38
2018-12-05T03:34:01.919Z,11.57
2018-12-05T03:36:29.346Z,11.70
2018-12-05T03:38:56.797Z,12.90
2018-12-05T03:41:24.301Z,10.10
2018-12-05T03:43:51.938Z,11.15
2018-12-05T03:46:19.368Z,9.40
2018-12-05T03:48:46.904Z,9.83
2018-12-05T03:51:14.422Z,10.33
2018-12-05T03:53:42.863Z,8.40
2018-12-05T03:56:10.274Z,8.23
2018-12-05T03:58:37.695Z,12.50
2018-12-05T04:01:05.101Z,11.97
2018-12-05T04:03:32.513Z,16.03
2018-12-05T04:05:59.928Z,9.33
2018-12-05T04:08:27.455Z,12.13
2018-12-05T04:10:54.872Z,8.60
2018-12-05T04:13:22.302Z,8.33
2018-12-05T04:15:49.731Z,9.63
2018-12-05T04:18:17.965Z,12.10
2018-12-05T04:20:45.410Z,11.97
2018-12-05T04:23:12.819Z,17.40
2018-12-05T04:25:40.334Z,16.10
2018-12-05T04:28:07.797Z,13.78
2018-12-05T04:30:35.206Z,9.70
2018-12-05T04:33:02.659Z,15.30
2018-12-05T04:35:30.094Z,13.58
2018-12-05T04:37:57.540Z,15.10
2018-12-05T04:40:24.949Z,15.63
2018-12-05T04:42:52.382Z,14.80
2018-12-05T04:45:19.805Z,13.38
2018-12-05T04:47:47.206Z,12.50
2018-12-05T04:50:14.653Z,14.93
2018-12-05T04:52:42.082Z,11.17
2018-12-05T04:55:09.518Z,12.93
2018-12-05T04:57:36.923Z,16.70
2018-12-05T05:00:05.583Z,13.53
2018-12-05T05:02:32.997Z,10.90
2018-12-05T05:05:00.455Z,15.30
2018-12-05T05:07:27.859Z,13.67
2018-12-05T05:09:55.283Z,15.95
2018-12-05T05:12:22.705Z,13.10
2018-12-05T05:14:50.146Z,13.47
2018-12-05T05:17:17.551Z,11.50
2018-12-05T05:19:44.987Z,15.17
2018-12-05T05:22:12.391Z,15.90
2018-12-05T05:24:39.808Z,12.30
2018-12-05T05:27:07.237Z,11.13
2018-12-05T05:29:34.650Z,13.40
2018-12-05T05:32:02.494Z,16.60
2018-12-05T05:34:29.906Z,19.35
2018-12-05T05:36:57.326Z,18.97
2018-12-05T05:39:24.765Z,14.27
2018-12-05T05:41:52.185Z,14.27
2018-12-05T05:44:19.629Z,16.20
2018-12-05T05:46:47.096Z,21.82
2018-12-05T05:49:14.521Z,34.00
2018-12-05T05:51:41.922Z,23.93
2018-12-05T05:54:09.341Z,30.73
2018-12-05T05:56:36.758Z,32.93
2018-12-05T05:59:04.219Z,31.73
2018-12-05T06:01:31.671Z,38.15
2018-12-05T06:03:59.096Z,40.93
2018-12-05T06:06:26.503Z,43.77
2018-12-05T06:08:53.930Z,39.30
2018-12-05T06:11:21.356Z,33.17
2018-12-05T06:13:48.778Z,30.17
2018-12-05T06:16:16.185Z,21.50
2018-12-05T06:18:43.598Z,19.90
2018-12-05T06:21:11.010Z,17.77
2018-12-05T06:23:38.450Z,18.03
2018-12-05T06:26:05.870Z,16.02
2018-12-05T06:28:33.278Z,14.20
2018-12-05T06:31:00.738Z,16.73
2018-12-05T06:33:28.174Z,18.83
2018-12-05T06:35:55.624Z,18.60
2018-12-05T06:38:23.057Z,24.13
2018-12-05T06:40:50.482Z,20.87
2018-12-05T06:43:17.897Z,24.77
2018-12-05T06:45:45.403Z,24.00
2018-12-05T06:48:13.125Z,24.80
2018-12-05T06:50:40.542Z,24.77
2018-12-05T06:53:07.954Z,23.95
2018-12-05T06:55:39.056Z,24.02
2018-12-05T06:58:04.802Z,31.05
2018-12-05T07:00:32.248Z,30.05
2018-12-05T07:02:59.666Z,23.38
2018-12-05T07:05:27.121Z,22.77
2018-12-05T07:07:54.583Z,19.40
2018-12-05T07:10:21.983Z,20.17
2018-12-05T07:12:49.412Z,23.10
2018-12-05T07:15:16.823Z,29.03
2018-12-05T07:17:44.249Z,19.83
2018-12-05T07:20:11.670Z,27.13
2018-12-05T07:22:39.081Z,22.90
2018-12-05T07:25:06.523Z,25.43
2018-12-05T07:27:34.054Z,26.50
2018-12-05T07:30:01.514Z,19.83
2018-12-05T07:32:28.926Z,27.20
2018-12-05T07:34:56.394Z,22.55
2018-12-05T07:37:23.830Z,26.57
2018-12-05T07:39:51.234Z,28.03
2018-12-05T07:42:18.662Z,25.60
2018-12-05T07:44:46.105Z,27.67
2018-12-05T07:47:13.513Z,21.00
2018-12-05T07:49:40.922Z,23.10
2018-12-05T07:52:08.354Z,25.48
2018-12-05T07:54:35.806Z,26.75
2018-12-05T07:57:03.302Z,26.30
2018-12-05T07:59:30.718Z,24.52
2018-12-05T08:01:58.137Z,21.37
2018-12-05T08:04:25.561Z,23.80
2018-12-05T08:06:52.978Z,25.30
2018-12-05T08:09:20.417Z,18.45
2018-12-05T08:11:47.838Z,31.47
2018-12-05T08:14:15.268Z,29.93
2018-12-05T08:16:42.717Z,24.15
2018-12-05T08:19:10.142Z,29.80
2018-12-05T08:21:37.570Z,22.20
2018-12-05T08:24:05.094Z,26.43
2018-12-05T08:26:32.542Z,26.00
2018-12-05T08:28:59.993Z,25.97
2018-12-05T08:31:27.404Z,29.80
2018-12-05T08:33:54.833Z,28.80
2018-12-05T08:36:22.252Z,20.93
2018-12-05T08:38:49.699Z,25.60
2018-12-05T08:41:17.109Z,24.10
2018-12-05T08:43:44.665Z,30.00
2018-12-05T08:46:12.182Z,34.10
2018-12-05T08:48:39.605Z,31.02
2018-12-05T08:51:07.064Z,35.50
2018-12-05T08:53:34.470Z,33.63
2018-12-05T08:56:01.894Z,30.17
2018-12-05T08:58:29.330Z,29.67
2018-12-05T09:00:56.740Z,34.50
2018-12-05T09:03:24.157Z,31.67
2018-12-05T09:05:51.603Z,35.10
2018-12-05T09:08:19.049Z,27.67
2018-12-05T09:10:46.453Z,24.50
2018-12-05T09:13:13.902Z,34.10
2018-12-05T09:15:41.346Z,33.37
2018-12-05T09:18:08.777Z,33.70
2018-12-05T09:20:36.193Z,33.60
2018-12-05T09:23:03.830Z,28.67
2018-12-05T09:25:31.260Z,33.20
2018-12-05T09:27:58.925Z,33.40
2018-12-05T09:30:26.367Z,31.05
2018-12-05T09:32:53.777Z,32.38
2018-12-05T09:35:21.191Z,27.37
2018-12-05T09:37:48.637Z,38.10
2018-12-05T09:40:16.156Z,28.57
2018-12-05T09:42:43.558Z,30.88
2018-12-05T09:45:12.017Z,28.92
2018-12-05T09:47:39.453Z,28.67
2018-12-05T09:50:06.878Z,28.47
2018-12-05T09:52:34.411Z,28.62
2018-12-05T09:55:01.842Z,32.60
2018-12-05T09:57:29.270Z,34.03
2018-12-05T09:59:56.690Z,31.07
2018-12-05T10:02:24.104Z,33.60
2018-12-05T10:04:51.534Z,32.70
2018-12-05T10:07:18.945Z,33.60
2018-12-05T10:09:46.373Z,29.60
2018-12-05T10:12:13.805Z,26.87
2018-12-05T10:14:41.243Z,32.03
2018-12-05T10:17:08.657Z,29.77
2018-12-05T10:19:36.099Z,24.23
2018-12-05T10:22:03.529Z,32.03
2018-12-05T10:24:31.024Z,30.35
2018-12-05T10:26:58.469Z,26.53
2018-12-05T10:29:25.880Z,32.37
2018-12-05T10:31:53.295Z,28.43
2018-12-05T10:34:20.713Z,30.43
2018-12-05T10:36:48.247Z,31.13
2018-12-05T10:39:15.690Z,27.03
2018-12-05T10:41:43.110Z,24.35
2018-12-05T10:44:10.557Z,28.43
2018-12-05T10:46:37.973Z,35.40
2018-12-05T10:49:05.426Z,31.68
2018-12-05T10:51:32.846Z,27.77
2018-12-05T10:54:00.249Z,30.13
2018-12-05T10:56:27.661Z,24.10
2018-12-05T10:58:55.111Z,25.17
2018-12-05T11:01:28.094Z,22.47
2018-12-05T11:03:55.519Z,23.00
2018-12-05T11:06:28.525Z,25.00
2018-12-05T11:09:01.557Z,28.47
2018-12-05T11:11:34.626Z,29.93
2018-12-05T11:17:11.923Z,29.72
2018-12-05T11:19:45.027Z,35.63
2018-12-05T11:22:14.374Z,27.77
2018-12-05T11:24:42.398Z,27.23
2018-12-05T11:27:09.833Z,27.73
2018-12-05T11:29:37.261Z,26.93
2018-12-05T11:32:04.718Z,31.60
2018-12-05T11:34:32.149Z,27.93
2018-12-05T11:36:59.554Z,26.37
2018-12-05T11:39:26.973Z,22.60
2018-12-05T11:41:54.392Z,31.10
2018-12-05T11:44:21.807Z,27.60
2018-12-05T11:46:49.218Z,20.70
2018-12-05T11:49:16.642Z,25.20
2018-12-05T11:51:44.057Z,21.70
2018-12-05T11:54:11.474Z,18.77
2018-12-05T11:56:38.910Z,32.80
2018-12-05T11:59:06.382Z,21.65
2018-12-05T12:01:33.880Z,21.53
2018-12-05T12:04:01.322Z,18.73
2018-12-05T12:06:28.798Z,24.52
2018-12-05T12:08:56.223Z,21.23
2018-12-05T12:11:23.682Z,22.50
2018-12-05T12:13:51.102Z,23.47
2018-12-05T12:16:18.957Z,17.77
2018-12-05T12:18:46.390Z,20.17
2018-12-05T12:21:13.797Z,21.33
2018-12-05T12:23:41.226Z,20.77
2018-12-05T12:26:08.654Z,23.13
2018-12-05T12:28:36.090Z,16.57
2018-12-05T12:31:03.511Z,19.17
2018-12-05T12:33:30.957Z,17.67
2018-12-05T12:35:58.380Z,22.10
2018-12-05T12:38:25.792Z,17.80
2018-12-05T12:40:53.230Z,15.40
2018-12-05T12:43:20.642Z,14.80
2018-12-05T12:45:48.057Z,20.00
2018-12-05T12:48:15.481Z,24.40
2018-12-05T12:50:42.889Z,19.92
2018-12-05T12:53:10.318Z,15.13
2018-12-05T12:55:37.789Z,19.65
2018-12-05T12:58:05.227Z,20.20
2018-12-05T13:00:32.801Z,21.17
2018-12-05T13:03:00.239Z,22.00
2018-12-05T13:05:27.655Z,20.47
2018-12-05T13:07:55.067Z,13.87
2018-12-05T13:10:22.489Z,19.37
2018-12-05T13:12:51.885Z,15.60
2018-12-05T13:15:19.340Z,18.13
2018-12-05T13:17:46.817Z,11.80
2018-12-05T13:20:14.295Z,15.68
2018-12-05T13:22:41.765Z,15.40
2018-12-05T13:32:06.479Z,13.32
2018-12-05T13:34:33.938Z,10.85
2018-12-05T13:37:02.349Z,17.80
2018-12-05T13:39:29.756Z,10.78
2018-12-05T13:41:57.179Z,16.57
2018-12-05T13:44:24.582Z,17.32
2018-12-05T13:46:52.062Z,15.05
2018-12-05T13:49:19.486Z,20.95
2018-12-05T13:51:46.938Z,12.43
2018-12-05T13:54:14.342Z,14.50
2018-12-05T13:56:41.755Z,19.55
2018-12-05T13:59:09.212Z,23.17
2018-12-05T14:01:36.605Z,17.42
2018-12-05T14:04:04.042Z,13.90
2018-12-05T14:06:31.471Z,11.77
2018-12-05T14:08:58.910Z,15.03
2018-12-05T14:11:26.329Z,15.57
2018-12-05T14:13:53.761Z,12.50
2018-12-05T14:16:21.181Z,19.30
2018-12-05T14:18:48.599Z,19.45
2018-12-05T14:21:16.117Z,17.37
2018-12-05T14:23:43.567Z,21.42
2018-12-05T14:26:11.019Z,15.10
2018-12-05T14:28:38.420Z,16.10
2018-12-05T14:31:05.845Z,23.90
2018-12-05T14:33:33.267Z,19.90
2018-12-05T14:36:00.794Z,15.90
2018-12-05T14:38:28.210Z,18.37
2018-12-05T14:40:55.663Z,26.27
2018-12-05T14:43:23.156Z,24.87
2018-12-05T14:45:50.563Z,28.00
2018-12-05T14:48:17.990Z,18.80
2018-12-05T14:50:45.397Z,26.02
2018-12-05T14:53:12.854Z,24.80
2018-12-05T14:55:40.258Z,23.20
2018-12-05T14:58:07.669Z,24.13
2018-12-05T15:00:35.194Z,26.70
2018-12-05T15:03:04.302Z,19.20
2018-12-05T15:05:31.927Z,18.30
2018-12-05T15:07:59.353Z,18.12
2018-12-05T15:10:26.769Z,22.73
2018-12-05T15:12:54.178Z,20.57
2018-12-05T15:15:21.622Z,21.60
2018-12-05T15:17:49.058Z,19.93
2018-12-05T15:20:16.487Z,27.93
2018-12-05T15:22:43.913Z,19.50
2018-12-05T15:25:11.353Z,21.80
2018-12-05T15:27:38.856Z,22.93
2018-12-05T15:30:06.431Z,20.30
2018-12-05T15:32:33.911Z,14.60
2018-12-05T15:35:01.338Z,19.83
2018-12-05T15:37:28.848Z,18.45
2018-12-05T15:39:56.270Z,20.80
2018-12-05T15:42:23.669Z,25.30
2018-12-05T15:44:51.108Z,19.10
2018-12-05T15:47:18.544Z,20.43
2018-12-05T15:49:45.949Z,16.80
2018-12-05T15:52:13.395Z,17.90
2018-12-05T15:54:41.225Z,19.30
2018-12-05T15:57:10.065Z,22.00
2018-12-05T15:59:37.829Z,22.40
2018-12-05T16:02:05.286Z,21.37
2018-12-05T16:04:32.717Z,24.93
2018-12-05T16:07:00.238Z,18.57
2018-12-05T16:09:27.682Z,16.90
2018-12-05T16:11:55.114Z,24.63
2018-12-05T16:14:22.570Z,18.70
2018-12-05T16:16:49.973Z,14.33
2018-12-05T16:19:17.408Z,28.77
2018-12-05T16:21:44.842Z,18.07
2018-12-05T16:24:12.264Z,18.83
2018-12-05T16:26:39.682Z,14.78
2018-12-05T16:29:07.131Z,18.25
2018-12-05T16:31:34.561Z,18.53
2018-12-05T16:34:01.981Z,21.42
2018-12-05T16:36:29.458Z,20.40
2018-12-05T16:38:56.867Z,14.27
2018-12-05T16:41:24.380Z,16.47
2018-12-05T16:43:51.793Z,17.98
2018-12-05T16:46:19.218Z,17.93
2018-12-05T16:48:46.616Z,22.57
2018-12-05T16:51:14.057Z,18.80
2018-12-05T16:53:41.466Z,11.85
2018-12-05T16:56:08.878Z,12.07
2018-12-05T16:58:36.365Z,16.43
2018-12-05T17:01:03.797Z,14.87
2018-12-05T17:03:31.235Z,14.40
2018-12-05T17:05:58.675Z,17.83
2018-12-05T17:08:26.090Z,22.90
2018-12-05T17:10:53.499Z,11.75
2018-12-05T17:13:20.913Z,20.40
2018-12-05T17:15:48.328Z,12.93
2018-12-05T17:18:15.794Z,15.20
2018-12-05T17:20:43.199Z,14.40
2018-12-05T17:23:10.639Z,9.60
2018-12-05T17:25:38.053Z,9.03
2018-12-05T17:28:05.465Z,8.58
2018-12-05T17:30:32.990Z,7.40
2018-12-05T17:33:00.419Z,6.97
2018-12-05T17:35:27.892Z,7.17
2018-12-05T17:37:55.368Z,13.03
2018-12-05T17:40:22.838Z,12.90
2018-12-05T17:42:50.239Z,15.93
2018-12-05T17:45:17.660Z,10.03
2018-12-05T17:47:45.079Z,13.83
2018-12-05T17:50:13.493Z,6.65
2018-12-05T17:52:41.631Z,8.03
2018-12-05T17:55:09.273Z,10.60
2018-12-05T17:57:36.709Z,21.27
2018-12-05T18:00:04.862Z,9.70
2018-12-05T18:02:32.275Z,9.60
2018-12-05T18:04:59.714Z,8.87
2018-12-05T18:07:27.135Z,6.83
2018-12-05T18:09:54.562Z,6.97
2018-12-05T18:12:21.987Z,7.70
2018-12-05T18:14:49.401Z,7.50
2018-12-05T18:17:16.822Z,8.97
2018-12-05T18:19:44.233Z,10.27
2018-12-05T18:22:11.673Z,8.33
2018-12-05T18:24:39.084Z,8.83
2018-12-05T18:27:06.660Z,10.80
2018-12-05T18:29:34.073Z,16.20
2018-12-05T18:32:01.471Z,7.90
2018-12-05T18:34:29.025Z,13.90
2018-12-05T18:36:57.495Z,9.43
2018-12-05T18:39:24.990Z,7.47
2018-12-05T18:41:52.406Z,8.75
2018-12-05T18:44:19.821Z,8.25
2018-12-05T18:46:47.278Z,7.50
2018-12-05T18:49:14.709Z,9.75
2018-12-05T18:51:42.104Z,9.40
2018-12-05T18:54:09.782Z,15.43
2018-12-05T18:56:37.227Z,9.13
2018-12-05T18:59:04.636Z,9.38
2018-12-05T19:01:32.066Z,10.63
2018-12-05T19:03:59.474Z,10.43
2018-12-05T19:06:26.908Z,7.60
2018-12-05T19:08:54.330Z,10.70
2018-12-05T19:11:21.801Z,10.03
2018-12-05T19:16:54.513Z,13.58
2018-12-05T19:19:21.901Z,7.50
2018-12-05T19:21:49.319Z,9.73
2018-12-05T19:24:16.723Z,5.63
2018-12-05T19:26:44.121Z,7.93
2018-12-05T19:29:11.523Z,10.37
2018-12-05T19:31:38.932Z,4.20
2018-12-05T19:34:06.375Z,10.48
2018-12-05T19:36:33.832Z,4.53
2018-12-05T19:39:01.244Z,13.00
2018-12-05T19:41:28.723Z,7.47
2018-12-05T19:43:56.129Z,7.40
2018-12-05T19:46:23.656Z,11.17
2018-12-05T19:48:51.050Z,10.40
2018-12-05T19:51:18.440Z,4.03
2018-12-05T19:53:45.867Z,7.53
2018-12-05T19:56:13.259Z,10.50
2018-12-05T19:58:40.653Z,5.70
2018-12-05T20:01:08.057Z,12.73
2018-12-05T20:03:35.461Z,5.93
2018-12-05T20:06:02.889Z,13.30
2018-12-05T20:08:30.287Z,8.30
2018-12-05T20:10:57.699Z,9.43
2018-12-05T20:13:25.137Z,9.20
2018-12-05T20:15:52.525Z,7.20
2018-12-05T20:18:19.922Z,7.60
2018-12-05T20:20:47.315Z,6.13
2018-12-05T20:23:14.738Z,7.30
2018-12-05T20:25:42.135Z,10.43
2018-12-05T20:28:09.562Z,7.93
2018-12-05T20:30:36.988Z,8.60
2018-12-05T20:33:04.417Z,9.25
2018-12-05T20:35:31.818Z,6.40
2018-12-05T20:37:59.206Z,6.67
2018-12-05T20:40:26.989Z,11.12
2018-12-05T20:42:54.568Z,5.75
2018-12-05T20:45:22.217Z,6.03
2018-12-05T20:47:49.675Z,7.95
2018-12-05T20:50:17.195Z,10.10
2018-12-05T20:52:44.878Z,8.20
2018-12-05T20:55:12.464Z,9.57
2018-12-05T20:57:40.131Z,16.70
2018-12-05T21:00:07.707Z,7.75
2018-12-05T21:02:35.239Z,13.20
2018-12-05T21:05:02.668Z,11.60
2018-12-05T21:07:30.079Z,6.83
2018-12-05T21:09:57.541Z,9.40
2018-12-05T21:12:24.931Z,9.53
2018-12-05T21:14:52.330Z,13.73
2018-12-05T21:17:19.726Z,9.33
2018-12-05T21:19:47.129Z,7.73
2018-12-05T21:22:14.521Z,9.50
2018-12-05T21:24:41.934Z,9.80
2018-12-05T21:27:09.361Z,8.90
2018-12-05T21:29:36.762Z,11.07
2018-12-05T21:32:04.206Z,10.95
2018-12-05T21:34:31.611Z,7.90
2018-12-05T21:36:59.016Z,9.63
2018-12-05T21:39:26.409Z,8.40
2018-12-05T21:41:54.330Z,9.05
2018-12-05T21:44:21.761Z,11.30
2018-12-05T21:46:49.250Z,8.50
2018-12-05T21:49:16.641Z,9.57
2018-12-05T21:51:44.050Z,17.10
2018-12-05T21:54:11.453Z,14.23
2018-12-05T21:56:38.874Z,11.50
2018-12-05T21:59:06.354Z,9.50
2018-12-05T22:01:33.775Z,10.33
2018-12-05T22:04:01.182Z,14.10
2018-12-05T22:06:28.611Z,8.40
2018-12-05T22:08:56.019Z,15.07
2018-12-05T22:11:23.430Z,7.35
2018-12-05T22:13:50.850Z,10.75
2018-12-05T22:16:18.245Z,16.40
2018-12-05T22:18:45.667Z,11.93
2018-12-05T22:21:13.178Z,13.73
2018-12-05T22:23:41.557Z,9.28
2018-12-05T22:26:08.976Z,15.87
2018-12-05T22:28:36.366Z,10.03
2018-12-05T22:31:03.803Z,15.60
2018-12-05T22:33:31.226Z,8.43
2018-12-05T22:35:58.646Z,10.50
2018-12-05T22:38:26.070Z,8.45
2018-12-05T22:40:53.473Z,11.13
2018-12-05T22:43:20.871Z,8.40
2018-12-05T22:45:48.269Z,15.07
2018-12-05T22:48:15.665Z,12.77
2018-12-05T22:50:43.081Z,7.70
2018-12-05T22:53:10.531Z,17.25
2018-12-05T22:55:37.941Z,12.87
2018-12-05T22:58:05.329Z,13.53
2018-12-05T23:00:32.768Z,12.60
2018-12-05T23:03:01.055Z,16.00
2018-12-05T23:05:28.497Z,10.40
2018-12-05T23:07:55.990Z,10.10
2018-12-05T23:10:24.155Z,13.32
2018-12-05T23:12:51.549Z,14.25
2018-12-05T23:15:18.965Z,11.08
2018-12-05T23:17:46.366Z,8.30
2018-12-05T23:20:13.762Z,12.78
2018-12-05T23:22:41.165Z,11.13
2018-12-05T23:25:08.622Z,15.68
2018-12-05T23:27:36.046Z,9.43
2018-12-05T23:30:03.806Z,8.67
2018-12-05T23:32:31.250Z,9.63
2018-12-05T23:34:58.645Z,14.50
2018-12-05T23:37:26.056Z,10.90
2018-12-05T23:39:53.456Z,10.13
2018-12-05T23:42:20.859Z,8.73
2018-12-05T23:44:48.285Z,13.50
2018-12-05T23:47:15.694Z,8.87
2018-12-05T23:49:43.097Z,13.03
2018-12-05T23:52:10.517Z,11.43
2018-12-05T23:54:37.917Z,10.13
2018-12-05T23:57:05.324Z,10.37
2018-12-05T23:59:32.730Z,10.65
